Time;durP1;ratioP1;P1;durP2;ratioP2;P2;SDS_P1;SDS_P2;PMS_P1;PMS_P2;Temp;Humidity;BMP_temperature;BMP_pressure;BME280_temperature;BME280_humidity;BME280_pressure;Samples;Min_cycle;Max_cycle;Signal;HPM_P1;HPM_P2
2022/10/08 00:00:41;;;;;;;4.95;1.30;;;;;;;21.62;50.93;101675.91;5092463;28;20479;-74
2022/10/08 00:03:07;;;;;;;4.18;1.17;;;;;;;22.60;48.49;101668.91;5091725;28;20046;-74
2022/10/08 00:05:32;;;;;;;5.20;1.17;;;;;;;22.87;48.63;101662.25;5092208;28;20472;-74
2022/10/08 00:07:57;;;;;;;6.32;1.40;;;;;;;22.84;47.81;101662.38;5092540;28;20032;-74
2022/10/08 00:10:23;;;;;;;3.58;1.25;;;;;;;23.06;47.62;101666.66;5091680;28;20028;-74
2022/10/08 00:12:48;;;;;;;9.88;1.50;;;;;;;21.24;51.68;101669.53;5092441;28;20028;-74
2022/10/08 00:15:14;;;;;;;7.78;1.52;;;;;;;21.17;52.43;101679.53;5092253;28;20028;-74
2022/10/08 00:17:39;;;;;;;6.82;1.50;;;;;;;21.34;52.35;101678.88;5091404;28;20565;-74
2022/10/08 00:20:05;;;;;;;5.97;2.35;;;;;;;21.68;52.30;101672.16;5091829;28;20044;-74
2022/10/08 00:22:30;;;;;;;4.65;1.30;;;;;;;21.43;52.72;101673.16;5093263;28;20484;-74
2022/10/08 00:24:56;;;;;;;8.38;1.60;;;;;;;21.47;52.23;101666.78;5091385;28;20032;-74
2022/10/08 00:27:25;;;;;;;8.80;1.48;;;;;;;20.45;55.25;101670.81;5091829;28;20036;-74
2022/10/08 00:29:51;;;;;;;6.90;2.05;;;;;;;21.78;52.70;101670.78;5090980;28;20028;-74
2022/10/08 00:32:18;;;;;;;5.95;1.50;;;;;;;21.56;53.12;101670.00;5093191;28;20490;-74
2022/10/08 00:34:44;;;;;;;9.27;1.60;;;;;;;22.13;50.96;101664.81;5091925;28;20036;-75
2022/10/08 00:37:09;;;;;;;8.18;1.58;;;;;;;21.41;53.18;101667.03;5091073;28;20062;-74
2022/10/08 00:39:35;;;;;;;9.00;1.80;;;;;;;20.63;55.88;101660.44;5091576;28;20035;-74
2022/10/08 00:42:01;;;;;;;4.15;1.92;;;;;;;21.26;55.36;101663.22;5091480;28;20024;-75
2022/10/08 00:44:45;;;;;;;8.30;2.00;;;;;;;21.50;54.77;101666.66;5091134;28;20028;-74
2022/10/08 00:47:18;;;;;;;4.40;1.95;;;;;;;22.08;52.68;101662.38;5091592;28;20042;-74
2022/10/08 00:49:48;;;;;;;6.60;2.28;;;;;;;21.18;54.13;101668.88;5091648;28;20047;-74
2022/10/08 00:52:15;;;;;;;8.43;1.70;;;;;;;21.07;55.36;101668.44;5090809;28;20082;-75
2022/10/08 00:54:40;;;;;;;9.95;1.92;;;;;;;21.19;56.13;101665.25;5091376;28;20016;-75
2022/10/08 00:57:07;;;;;;;5.60;1.67;;;;;;;21.76;55.47;101672.66;5091467;28;20537;-74
2022/10/08 00:59:33;;;;;;;5.07;1.77;;;;;;;20.56;59.15;101677.53;5090559;28;20027;-74
2022/10/08 01:01:59;;;;;;;6.57;2.17;;;;;;;21.84;54.66;101670.53;5091345;28;20487;-74
2022/10/08 01:04:25;;;;;;;9.07;2.40;;;;;;;22.05;53.61;101667.84;5092625;28;20059;-74
2022/10/08 01:06:58;;;;;;;2.92;1.60;;;;;;;21.83;54.13;101674.13;5090526;28;20442;-74
2022/10/08 01:09:37;;;;;;;9.23;1.83;;;;;;;22.04;53.58;101666.13;5092354;28;20031;-73
2022/10/08 01:12:32;;;;;;;9.40;2.33;;;;;;;22.20;54.27;101667.16;5090504;28;20035;-74
2022/10/08 01:15:35;;;;;;;9.30;1.70;;;;;;;21.65;55.04;101680.22;5091124;28;20036;-74
2022/10/08 01:18:00;;;;;;;14.52;2.10;;;;;;;21.64;55.37;101673.22;5068727;28;20044;-74
2022/10/08 01:20:51;;;;;;;6.70;2.38;;;;;;;21.60;55.47;101676.94;5090990;28;20491;-75
2022/10/08 01:23:28;;;;;;;9.70;1.88;;;;;;;22.17;53.54;101661.97;5090996;28;20024;-75
2022/10/08 01:25:54;;;;;;;5.00;1.60;;;;;;;22.10;52.42;101657.84;5090648;28;20027;-75
2022/10/08 01:28:26;;;;;;;10.07;2.15;;;;;;;22.41;51.68;101659.13;5092054;28;20016;-75
2022/10/08 01:30:58;;;;;;;8.90;2.42;;;;;;;22.53;50.61;101666.53;5092300;28;20031;-74
2022/10/08 01:33:27;;;;;;;;;;;;;;;22.90;49.42;101661.22;5090435;28;20143;-74
2022/10/08 01:35:56;;;;;;;8.30;2.25;;;;;;;22.31;51.06;101666.66;5090951;28;19970;-74
2022/10/08 01:38:25;;;;;;;7.68;2.17;;;;;;;22.99;49.56;101666.09;5090617;28;20020;-74
2022/10/08 01:40:57;;;;;;;9.63;1.85;;;;;;;23.15;49.23;101676.91;5091282;28;20019;-74
2022/10/08 01:43:25;;;;;;;7.40;2.47;;;;;;;23.44;48.40;101671.91;5092077;28;20030;-74
2022/10/08 01:45:57;;;;;;;10.27;3.00;;;;;;;22.64;49.53;101681.13;5090511;28;20073;-74
2022/10/08 01:48:27;;;;;;;7.35;1.88;;;;;;;22.72;50.29;101673.63;5091202;28;20099;-74
2022/10/08 01:51:12;;;;;;;14.98;2.25;;;;;;;22.44;51.04;101674.09;5090484;28;20526;-74
2022/10/08 01:53:40;;;;;;;9.70;2.10;;;;;;;21.64;53.28;101678.53;5091804;28;20035;-74
2022/10/08 01:56:10;;;;;;;10.20;2.55;;;;;;;21.78;53.02;101681.44;5090045;28;20038;-74
2022/10/08 01:58:40;;;;;;;7.38;2.13;;;;;;;21.68;53.27;101688.97;5090700;28;20491;-74
2022/10/08 02:01:14;;;;;;;10.90;2.10;;;;;;;21.59;52.74;101691.16;5091302;28;20112;-74
2022/10/08 02:04:31;;;;;;;10.88;2.40;;;;;;;21.22;55.59;101693.53;5090606;28;20039;-74
2022/10/08 02:06:27;;;;;;;10.07;2.30;;;;;;;21.92;53.03;101687.97;5091696;28;20032;-74
2022/10/08 02:08:52;;;;;;;7.50;2.50;;;;;;;21.32;54.55;101691.34;5091125;28;20149;-74
2022/10/08 02:11:18;;;;;;;8.52;2.28;;;;;;;21.54;54.42;101687.81;5090400;28;20106;-74
2022/10/08 02:13:43;;;;;;;16.90;2.88;;;;;;;21.25;54.62;101687.22;5090275;28;20031;-74
2022/10/08 02:16:18;;;;;;;12.88;2.78;;;;;;;21.24;54.83;101693.44;5090155;28;20028;-74
2022/10/08 02:18:57;;;;;;;10.95;2.10;;;;;;;21.90;51.87;101687.13;5090443;28;20059;-74
2022/10/08 02:21:27;;;;;;;16.40;2.83;;;;;;;21.40;54.17;101691.88;5090468;28;20023;-74
2022/10/08 02:24:01;;;;;;;10.63;2.28;;;;;;;21.92;52.01;101687.97;5091010;28;20023;-74
2022/10/08 02:26:32;;;;;;;9.05;2.33;;;;;;;21.49;53.52;101691.50;5090125;28;20024;-74
2022/10/08 02:29:13;;;;;;;10.60;2.33;;;;;;;21.40;52.89;101699.00;5090167;28;20482;-74
2022/10/08 02:31:48;;;;;;;10.38;3.40;;;;;;;21.73;52.67;101694.06;5090214;28;20024;-73
2022/10/08 02:34:20;;;;;;;9.25;2.50;;;;;;;22.07;51.24;101692.59;5093447;28;20023;-74
2022/10/08 02:36:55;;;;;;;8.63;2.25;;;;;;;22.30;49.74;101688.88;5094826;28;20024;-74
2022/10/08 02:39:24;;;;;;;14.73;2.55;;;;;;;21.95;50.18;101693.13;5093609;28;20055;-74
2022/10/08 02:41:53;;;;;;;12.45;2.42;;;;;;;22.03;50.91;101698.97;5093984;28;20081;-74
2022/10/08 02:44:41;;;;;;;11.43;2.17;;;;;;;22.01;50.25;101698.19;5094523;28;20020;-74
2022/10/08 02:47:11;;;;;;;10.93;2.35;;;;;;;22.08;50.57;101699.66;5093815;28;20069;-74
2022/10/08 02:49:43;;;;;;;5.50;1.95;;;;;;;22.11;50.19;101694.19;5093752;28;20020;-74
2022/10/08 02:52:10;;;;;;;11.57;2.20;;;;;;;21.62;52.45;101691.88;5093002;28;20048;-74
2022/10/08 02:54:40;;;;;;;11.75;2.08;;;;;;;21.65;51.88;101696.19;5093931;28;20081;-74
2022/10/08 02:57:31;;;;;;;13.43;2.60;;;;;;;21.24;53.70;101702.31;5093756;28;20417;-74
2022/10/08 02:59:57;;;;;;;8.40;1.92;;;;;;;21.26;53.58;101699.59;5093517;28;20445;-74
2022/10/08 03:02:37;;;;;;;10.50;2.35;;;;;;;21.08;53.28;101696.75;5093543;28;20541;-74
2022/10/08 03:05:15;;;;;;;11.77;2.47;;;;;;;21.46;51.73;101707.59;5092821;28;20337;-74
2022/10/08 03:07:41;;;;;;;9.45;2.20;;;;;;;22.17;49.65;101701.91;5093525;28;20032;-74
2022/10/08 03:10:07;;;;;;;11.35;2.10;;;;;;;20.62;53.62;101709.16;5093542;28;20016;-74
2022/10/08 03:12:33;;;;;;;10.75;2.60;;;;;;;19.33;58.03;101726.06;5093832;28;20020;-74
2022/10/08 03:14:59;;;;;;;15.15;2.42;;;;;;;19.54;58.17;101724.47;5093433;28;20379;-73
2022/10/08 03:17:31;;;;;;;7.70;1.75;;;;;;;20.59;54.14;101723.41;5094718;28;20229;-74
2022/10/08 03:19:59;;;;;;;15.88;2.80;;;;;;;21.60;51.16;101719.50;5092538;28;20020;-74
2022/10/08 03:22:26;;;;;;;16.23;2.80;;;;;;;21.44;50.24;101728.06;5093267;28;20026;-74
2022/10/08 03:24:52;;;;;;;11.93;2.40;;;;;;;20.87;52.24;101724.16;5093334;28;20020;-74
2022/10/08 03:27:17;;;;;;;10.43;2.00;;;;;;;20.76;50.92;101722.81;5092325;28;20058;-74
2022/10/08 03:29:42;;;;;;;10.50;2.05;;;;;;;20.79;50.87;101725.34;5094435;28;20020;-74
2022/10/08 03:32:08;;;;;;;13.23;2.00;;;;;;;20.48;51.63;101731.81;5092924;28;20392;-74
2022/10/08 03:34:33;;;;;;;10.60;2.10;;;;;;;20.28;53.16;101739.66;5092262;28;20483;-74
2022/10/08 03:36:59;;;;;;;10.75;2.15;;;;;;;20.88;51.29;101740.03;5093066;28;20030;-74
2022/10/08 03:39:24;;;;;;;15.07;2.60;;;;;;;20.07;52.17;101738.59;5094237;28;20066;-74
2022/10/08 03:41:49;;;;;;;7.03;1.97;;;;;;;21.15;50.20;101745.22;5092191;28;20027;-74
2022/10/08 03:44:15;;;;;;;17.40;2.50;;;;;;;20.50;50.69;101743.22;5093791;28;20032;-74
2022/10/08 03:46:40;;;;;;;10.55;1.75;;;;;;;21.23;49.19;101744.91;5092055;28;20019;-74
2022/10/08 03:49:05;;;;;;;12.82;2.08;;;;;;;21.15;49.02;101746.06;5092716;28;20012;-74
2022/10/08 03:51:31;;;;;;;16.23;1.93;;;;;;;21.21;48.79;101752.06;5093869;28;20047;-74
2022/10/08 03:53:57;;;;;;;14.00;1.92;;;;;;;20.25;50.22;101753.88;5091949;28;20023;-74
2022/10/08 03:56:25;;;;;;;13.80;2.42;;;;;;;20.76;49.02;101754.69;5092320;28;20384;-74
2022/10/08 03:58:53;;;;;;;9.70;2.17;;;;;;;20.92;48.86;101757.59;5093786;28;20023;-74
2022/10/08 04:01:19;;;;;;;10.37;1.63;;;;;;;21.21;48.75;101757.38;5091691;28;20382;-74
2022/10/08 04:03:44;;;;;;;7.73;1.70;;;;;;;21.08;47.88;101771.16;5092456;28;20024;-74
2022/10/08 04:06:10;;;;;;;7.75;2.20;;;;;;;20.72;49.20;101766.34;5092424;28;20023;-74
2022/10/08 04:08:36;;;;;;;9.05;1.95;;;;;;;20.97;47.62;101765.41;5091388;28;20111;-74
2022/10/08 04:11:06;;;;;;;10.93;1.92;;;;;;;21.03;47.88;101767.81;5092192;28;20107;-74
2022/10/08 04:13:33;;;;;;;7.60;1.63;;;;;;;20.83;48.67;101772.13;5092306;28;20016;-74
2022/10/08 04:16:06;;;;;;;16.60;2.70;;;;;;;20.49;49.33;101768.03;5092787;28;20106;-74
2022/10/08 04:18:32;;;;;;;11.60;2.13;;;;;;;20.83;48.37;101772.13;5092116;28;20023;-74
2022/10/08 04:20:58;;;;;;;9.52;2.83;;;;;;;20.74;48.44;101772.47;5091889;28;20024;-74
2022/10/08 04:23:24;;;;;;;9.10;2.90;;;;;;;19.92;50.34;101783.34;5091609;28;20410;-74
2022/10/08 04:25:51;;;;;;;13.25;3.53;;;;;;;20.14;50.57;101782.56;5093415;28;20028;-74
2022/10/08 04:28:17;;;;;;;13.50;3.17;;;;;;;20.53;49.15;101783.88;5092083;28;20472;-74
2022/10/08 04:30:42;;;;;;;19.10;3.10;;;;;;;20.48;49.80;101787.56;5090983;28;20024;-74
2022/10/08 04:33:08;;;;;;;9.40;2.37;;;;;;;20.87;47.67;101791.47;5093204;28;20082;-74
2022/10/08 04:35:37;;;;;;;10.50;2.20;;;;;;;20.60;48.25;101796.00;5091713;28;20023;-74
2022/10/08 04:38:02;;;;;;;12.27;2.77;;;;;;;20.08;49.03;101801.38;5091128;28;20387;-74
2022/10/08 04:40:27;;;;;;;10.60;1.88;;;;;;;19.81;50.31;101799.63;5091664;28;20114;-75
2022/10/08 04:42:53;;;;;;;12.73;2.00;;;;;;;19.77;50.54;101797.97;5090907;28;20032;-74
2022/10/08 04:45:18;;;;;;;13.83;3.40;;;;;;;20.24;49.19;101799.94;5091765;28;20023;-74
2022/10/08 04:47:43;;;;;;;14.30;2.70;;;;;;;20.65;47.54;101800.22;5091700;28;20024;-74
2022/10/08 04:50:09;;;;;;;11.50;2.07;;;;;;;19.36;50.99;101804.59;5090688;28;20020;-74
2022/10/08 04:52:34;;;;;;;5.43;1.37;;;;;;;20.00;49.47;101804.28;5092838;28;20051;-74
2022/10/08 04:54:59;;;;;;;9.40;1.80;;;;;;;20.20;48.72;101810.72;5092378;28;20028;-74
2022/10/08 04:57:25;;;;;;;14.70;1.57;;;;;;;19.54;49.46;101809.31;5090455;28;20024;-73
2022/10/08 04:59:50;;;;;;;9.00;1.73;;;;;;;19.76;48.14;101814.78;5091313;28;20028;-74
2022/10/08 05:02:15;;;;;;;10.83;2.30;;;;;;;20.37;47.89;101810.97;5091330;28;20024;-74
2022/10/08 05:04:41;;;;;;;6.80;1.60;;;;;;;20.17;46.83;101819.66;5092121;28;20024;-74
2022/10/08 05:07:06;;;;;;;6.37;1.60;;;;;;;20.62;45.90;101815.38;5092451;28;20016;-74
2022/10/08 05:09:31;;;;;;;13.57;1.50;;;;;;;20.91;45.95;101822.31;5091188;28;20027;-74
2022/10/08 05:11:57;;;;;;;8.53;1.50;;;;;;;20.92;45.79;101823.19;5091444;28;20095;-74
2022/10/08 05:14:22;;;;;;;8.53;1.73;;;;;;;20.53;45.83;101826.38;5091068;28;20043;-74
2022/10/08 05:16:47;;;;;;;8.97;1.07;;;;;;;20.57;46.64;101830.66;5091213;28;20476;-74
2022/10/08 05:19:13;;;;;;;6.37;1.40;;;;;;;21.16;45.46;101832.88;5090306;28;20472;-73
2022/10/08 05:21:38;;;;;;;16.47;1.63;;;;;;;20.47;45.98;101833.63;5092102;28;20034;-73
2022/10/08 05:24:06;;;;;;;8.63;1.53;;;;;;;20.62;46.66;101833.97;5090732;28;20024;-73
2022/10/08 05:26:37;;;;;;;6.90;1.20;;;;;;;20.03;46.67;101838.69;5091508;28;20019;-73
2022/10/08 05:29:03;;;;;;;19.80;2.70;;;;;;;20.21;46.84;101841.63;5091024;28;20531;-73
2022/10/08 05:31:29;;;;;;;7.43;1.73;;;;;;;20.45;45.69;101842.56;5090587;28;20024;-73
2022/10/08 05:33:54;;;;;;;13.80;1.70;;;;;;;20.30;45.47;101841.31;5090084;28;20020;-73
2022/10/08 05:36:25;;;;;;;2.43;0.97;;;;;;;20.80;44.38;101857.25;5091847;28;20099;-73
2022/10/08 05:38:52;;;;;;;6.43;1.30;;;;;;;20.22;45.47;101860.16;5090399;28;20055;-74
2022/10/08 05:41:17;;;;;;;6.40;1.10;;;;;;;19.26;47.31;101863.19;5089706;28;20028;-74
2022/10/08 05:43:43;;;;;;;15.87;1.40;;;;;;;19.64;46.90;101869.06;5090539;28;20027;-73
2022/10/08 05:46:09;;;;;;;9.57;1.80;;;;;;;20.03;46.04;101859.94;5089894;28;20024;-74
2022/10/08 05:48:36;;;;;;;12.47;1.63;;;;;;;19.67;46.53;101863.69;5090601;28;20057;-73
2022/10/08 05:51:05;;;;;;;7.00;2.13;;;;;;;19.47;47.47;101866.97;5091628;28;20048;-74
2022/10/08 05:53:34;;;;;;;12.97;1.60;;;;;;;19.22;48.63;101872.16;5089677;28;20141;-73
2022/10/08 05:56:01;;;;;;;13.97;1.27;;;;;;;18.67;48.36;101890.47;5090613;28;20445;-74
2022/10/08 05:58:26;;;;;;;11.53;1.60;;;;;;;19.45;47.13;101878.53;5090388;28;20115;-74
2022/10/08 06:00:59;;;;;;;9.90;2.90;;;;;;;19.27;47.81;101895.88;5089493;28;20106;-74
2022/10/08 06:03:25;;;;;;;9.50;1.10;;;;;;;19.61;46.41;101892.19;5090284;28;20058;-73
2022/10/08 06:05:51;;;;;;;7.50;1.23;;;;;;;18.90;48.46;101904.88;5091744;28;20028;-73
2022/10/08 06:08:16;;;;;;;6.90;1.57;;;;;;;19.95;46.52;101899.97;5093172;28;20119;-73
2022/10/08 06:10:52;;;;;;;10.30;1.73;;;;;;;18.63;48.91;101916.16;5094128;28;20024;-73
2022/10/08 06:13:18;;;;;;;7.50;1.30;;;;;;;18.95;47.98;101913.56;5094472;28;20463;-73
2022/10/08 06:15:57;;;;;;;8.17;1.23;;;;;;;19.13;48.17;101920.13;5094997;28;20471;-73
2022/10/08 06:18:24;;;;;;;6.90;1.07;;;;;;;19.49;46.98;101938.50;5094064;28;20039;-74
2022/10/08 06:20:49;;;;;;;5.10;1.20;;;;;;;19.01;47.71;101931.06;5094327;28;20028;-74
2022/10/08 06:23:15;;;;;;;8.83;1.20;;;;;;;19.47;46.93;101946.50;5093509;28;20195;-74
2022/10/08 06:25:40;;;;;;;8.80;1.27;;;;;;;19.85;46.23;101940.97;5094352;28;20082;-74
2022/10/08 06:28:05;;;;;;;6.07;1.20;;;;;;;19.26;46.55;101947.13;5095509;28;20106;-73
2022/10/08 06:30:31;;;;;;;8.20;1.03;;;;;;;19.73;45.87;101939.56;5093346;28;20024;-73
2022/10/08 06:32:56;;;;;;;9.07;1.40;;;;;;;19.45;46.67;101955.41;5094093;28;20467;-74
2022/10/08 06:35:21;;;;;;;6.20;1.30;;;;;;;19.21;47.67;101954.38;5093615;28;20035;-74
2022/10/08 06:37:47;;;;;;;13.47;1.63;;;;;;;19.58;46.44;101961.25;5095285;28;20508;-73
2022/10/08 06:40:13;;;;;;;13.67;2.00;;;;;;;19.07;47.45;101963.56;5093930;28;20365;-73
2022/10/08 06:42:38;;;;;;;9.53;1.40;;;;;;;20.02;46.25;101966.09;5093131;28;20110;-73
2022/10/08 06:45:04;;;;;;;15.87;1.10;;;;;;;19.55;47.25;101977.22;5093865;28;20028;-73
2022/10/08 06:47:30;;;;;;;10.27;1.57;;;;;;;19.45;47.17;101980.16;5093960;28;20028;-73
2022/10/08 06:49:55;;;;;;;7.87;1.17;;;;;;;20.20;46.24;101977.94;5093165;28;20028;-73
2022/10/08 06:52:20;;;;;;;6.53;0.77;;;;;;;19.60;46.32;101988.56;5093745;28;20030;-73
2022/10/08 06:54:46;;;;;;;9.93;1.43;;;;;;;18.67;48.69;101993.75;5093786;28;20055;-73
2022/10/08 06:57:11;;;;;;;4.20;0.87;;;;;;;19.56;47.30;101997.53;5092976;28;20032;-73
2022/10/08 06:59:36;;;;;;;9.13;1.20;;;;;;;19.14;47.69;102006.66;5093578;28;20115;-73
2022/10/08 07:02:02;;;;;;;1.87;0.80;;;;;;;18.56;49.30;101999.31;5093649;28;20114;-74
2022/10/08 07:04:27;;;;;;;5.97;1.30;;;;;;;18.33;49.23;101999.88;5093244;28;20024;-73
2022/10/08 07:06:52;;;;;;;7.63;1.13;;;;;;;19.43;47.53;102003.19;5093489;28;20032;-74
2022/10/08 07:09:18;;;;;;;10.30;1.10;;;;;;;19.27;47.70;101997.44;5094008;28;20486;-73
2022/10/08 07:11:43;;;;;;;4.73;1.33;;;;;;;19.93;46.44;102009.72;5092756;28;20488;-73
2022/10/08 07:14:08;;;;;;;8.57;1.17;;;;;;;19.37;47.06;102003.38;5093401;28;20035;-73
2022/10/08 07:16:34;;;;;;;11.63;1.20;;;;;;;20.29;45.15;102004.16;5093339;28;20028;-73
2022/10/08 07:18:59;;;;;;;7.83;1.53;;;;;;;19.60;46.75;102017.75;5091522;28;20127;-72
2022/10/08 07:21:26;;;;;;;6.07;1.07;;;;;;;19.34;47.32;102014.03;5093218;28;20020;-74
2022/10/08 07:23:51;;;;;;;5.63;1.00;;;;;;;19.88;46.22;102020.47;5093288;28;20052;-74
2022/10/08 07:26:20;;;;;;;3.75;0.80;;;;;;;20.23;45.03;102009.69;5092581;28;20065;-73
2022/10/08 07:28:54;;;;;;;10.52;1.45;;;;;;;18.82;47.85;102032.19;5092901;28;20026;-73
2022/10/08 07:31:22;;;;;;;9.35;1.52;;;;;;;19.65;46.22;102037.91;5094616;28;20035;-73
2022/10/08 07:33:48;;;;;;;6.72;1.13;;;;;;;19.96;45.37;102033.50;5092406;28;20455;-73
2022/10/08 07:36:20;;;;;;;11.90;1.05;;;;;;;20.29;45.20;102036.00;5092983;28;20032;-73
2022/10/08 07:38:46;;;;;;;7.53;1.50;;;;;;;20.22;44.64;102045.97;5092053;28;20032;-72
2022/10/08 07:41:13;;;;;;;3.55;0.77;;;;;;;20.38;44.38;102041.03;5092823;28;20027;-73
2022/10/08 07:43:42;;;;;;;9.15;1.30;;;;;;;20.19;44.35;102058.47;5092653;28;20035;-73
2022/10/08 07:46:09;;;;;;;10.25;1.83;;;;;;;20.34;43.82;102050.03;5091824;28;20058;-73
2022/10/08 07:48:35;;;;;;;7.53;1.20;;;;;;;21.07;42.23;102058.28;5092693;28;20028;-73
2022/10/08 07:51:12;;;;;;;5.30;1.38;;;;;;;21.72;42.21;102056.84;5092634;28;20561;-73
2022/10/08 07:53:38;;;;;;;6.95;1.00;;;;;;;21.13;43.21;102066.03;5091732;28;20047;-73
2022/10/08 07:56:05;;;;;;;3.08;1.02;;;;;;;21.12;43.67;102065.16;5093869;28;20414;-73
2022/10/08 07:58:30;;;;;;;4.32;0.93;;;;;;;20.57;43.02;102067.88;5092485;28;20027;-73
2022/10/08 08:00:57;;;;;;;6.50;1.42;;;;;;;20.61;43.08;102081.94;5091529;28;20062;-73
2022/10/08 08:03:22;;;;;;;6.97;1.67;;;;;;;20.63;43.80;102074.75;5092432;28;20023;-72
2022/10/08 08:05:47;;;;;;;19.63;2.17;;;;;;;20.26;44.43;102089.22;5092380;28;20030;-73
2022/10/08 08:08:13;;;;;;;15.13;2.47;;;;;;;21.15;42.44;102083.66;5092942;28;20028;-72
2022/10/08 08:10:39;;;;;;;9.70;1.20;;;;;;;20.95;43.68;102091.44;5092347;28;20054;-73
2022/10/08 08:13:04;;;;;;;8.07;1.05;;;;;;;20.67;44.16;102100.31;5091963;28;20024;-73
2022/10/08 08:15:29;;;;;;;8.57;1.27;;;;;;;21.24;42.35;102094.91;5091477;28;20027;-73
2022/10/08 08:17:55;;;;;;;10.63;1.40;;;;;;;21.12;42.76;102102.38;5092096;28;20036;-73
2022/10/08 08:20:20;;;;;;;8.98;1.30;;;;;;;20.40;44.11;102108.25;5092007;28;20032;-73
2022/10/08 08:22:45;;;;;;;11.43;1.88;;;;;;;19.94;44.26;102122.91;5091175;28;20039;-73
2022/10/08 08:25:11;;;;;;;7.20;1.60;;;;;;;20.17;43.76;102117.78;5092051;28;20024;-73
2022/10/08 08:27:36;;;;;;;9.25;1.25;;;;;;;20.08;44.22;102128.66;5091869;28;20467;-73
2022/10/08 08:30:01;;;;;;;7.47;1.13;;;;;;;19.26;44.93;102122.06;5090341;28;20104;-72
2022/10/08 08:32:27;;;;;;;10.43;1.88;;;;;;;20.86;42.80;102121.88;5092994;28;20032;-73
2022/10/08 08:34:53;;;;;;;3.28;1.42;;;;;;;20.65;43.32;102134.03;5093316;28;20043;-72
2022/10/08 08:37:18;;;;;;;6.43;1.00;;;;;;;20.99;42.18;102127.63;5091177;28;20546;-73
2022/10/08 08:39:43;;;;;;;7.95;1.02;;;;;;;21.32;41.63;102136.28;5091495;28;20035;-73
2022/10/08 08:42:35;;;;;;;8.77;1.33;;;;;;;21.20;41.73;102136.69;5091003;28;20054;-72
2022/10/08 08:45:24;;;;;;;5.75;0.93;;;;;;;20.53;42.21;102143.25;5092981;28;20475;-72
2022/10/08 08:47:57;;;;;;;6.75;0.93;;;;;;;20.21;41.33;102149.53;5091605;28;20028;-73
2022/10/08 08:50:30;;;;;;;3.38;0.80;;;;;;;20.45;41.63;102148.78;5090482;28;20458;-73
2022/10/08 08:52:55;;;;;;;;;;;;;;;21.27;40.47;102153.31;5091842;28;20069;-72
2022/10/08 08:55:32;;;;;;;3.85;0.80;;;;;;;21.35;40.74;102157.44;5091367;28;19919;-72
2022/10/08 08:58:12;;;;;;;5.57;0.90;;;;;;;22.12;39.83;102158.25;5090809;28;20032;-72
2022/10/08 09:00:44;;;;;;;9.40;1.38;;;;;;;21.09;40.79;102166.28;5091322;28;20438;-73
2022/10/08 09:03:15;;;;;;;5.13;0.80;;;;;;;20.12;41.89;102172.78;5091698;28;20035;-72
2022/10/08 09:05:44;;;;;;;7.80;1.02;;;;;;;21.30;41.03;102156.72;5091217;28;20023;-72
2022/10/08 09:08:21;;;;;;;9.50;1.23;;;;;;;21.73;39.99;102167.66;5091278;28;20043;-72
2022/10/08 09:10:58;;;;;;;9.55;0.82;;;;;;;20.54;42.01;102183.94;5090647;28;20107;-73
2022/10/08 09:13:27;;;;;;;7.30;1.30;;;;;;;21.94;40.27;102181.13;5090905;28;20055;-73
2022/10/08 09:15:54;;;;;;;8.15;1.20;;;;;;;22.33;38.97;102186.75;5091275;28;20064;-72
2022/10/08 09:18:20;;;;;;;5.63;1.30;;;;;;;21.26;40.39;102194.97;5091760;28;20020;-72
2022/10/08 09:20:45;;;;;;;6.60;1.25;;;;;;;20.94;40.54;102196.03;5092232;28;20035;-72
2022/10/08 09:23:19;;;;;;;9.25;1.20;;;;;;;22.13;39.19;102195.50;5090930;28;20031;-73
2022/10/08 09:25:51;;;;;;;7.60;1.65;;;;;;;20.62;41.70;102206.72;5090338;28;20422;-73
2022/10/08 09:28:47;;;;;;;7.40;1.20;;;;;;;21.75;39.52;102202.19;5090982;28;20027;-73
2022/10/08 09:31:20;;;;;;;8.30;1.42;;;;;;;21.58;40.29;102213.44;5088759;28;20055;-72
2022/10/08 09:33:58;;;;;;;2.58;1.20;;;;;;;20.80;41.37;102215.94;5092058;28;20065;-72
2022/10/08 09:36:48;;;;;;;5.93;1.10;;;;;;;21.45;40.30;102216.50;5090587;28;20032;-73
2022/10/08 09:39:22;;;;;;;4.05;0.88;;;;;;;21.89;38.91;102217.69;5091376;28;20036;-72
2022/10/08 09:42:06;;;;;;;8.95;1.10;;;;;;;21.51;39.89;102221.63;5090338;28;20039;-73
2022/10/08 09:44:44;;;;;;;9.25;1.13;;;;;;;23.05;37.55;102219.50;5091980;28;20031;-73
2022/10/08 09:47:15;;;;;;;4.60;1.00;;;;;;;22.99;37.13;102231.28;5089775;28;20024;-72
2022/10/08 09:49:42;;;;;;;8.65;1.40;;;;;;;22.69;37.17;102228.03;5090665;28;20024;-73
2022/10/08 09:52:12;;;;;;;10.20;1.58;;;;;;;23.03;36.94;102226.69;5090281;28;20052;-73
2022/10/08 09:54:47;;;;;;;8.95;1.15;;;;;;;23.14;36.82;102228.97;5089453;28;20039;-73
2022/10/08 09:57:15;;;;;;;5.25;1.00;;;;;;;22.00;37.86;102232.34;5090537;28;20023;-73
2022/10/08 09:59:49;;;;;;;4.95;0.68;;;;;;;22.23;36.51;102232.41;5089627;28;20020;-73
2022/10/08 10:02:30;;;;;;;9.48;0.93;;;;;;;21.61;38.61;102231.94;5091799;28;20016;-72
2022/10/08 10:04:57;;;;;;;5.10;0.98;;;;;;;22.18;36.94;102233.44;5091617;28;20058;-72
2022/10/08 10:07:23;;;;;;;6.05;2.80;;;;;;;22.30;36.75;102239.28;5089533;28;20026;-72
2022/10/08 10:09:53;;;;;;;8.80;2.00;;;;;;;22.04;37.31;102243.75;5090475;28;20020;-73
2022/10/08 10:12:18;;;;;;;8.80;1.45;;;;;;;22.08;38.04;102237.41;5091843;28;20505;-73
2022/10/08 10:14:48;;;;;;;14.57;3.58;;;;;;;22.25;37.38;102243.91;5089433;28;20119;-72
2022/10/08 10:17:30;;;;;;;6.43;1.30;;;;;;;23.24;36.67;102250.78;5090357;28;20016;-72
2022/10/08 10:20:04;;;;;;;6.18;1.00;;;;;;;22.96;36.37;102251.88;5090295;28;20560;-73
2022/10/08 10:22:45;;;;;;;6.13;1.08;;;;;;;22.31;37.28;102243.66;5089155;28;20028;-72
2022/10/08 10:25:10;;;;;;;4.90;0.80;;;;;;;22.67;36.58;102240.56;5091530;28;20034;-72
2022/10/08 10:27:50;;;;;;;7.47;1.20;;;;;;;23.62;35.39;102246.50;5089449;28;20027;-72
2022/10/08 10:30:22;;;;;;;5.65;0.98;;;;;;;21.49;38.08;102259.81;5090132;28;20020;-73
2022/10/08 10:33:03;;;;;;;7.60;1.55;;;;;;;21.22;39.29;102269.56;5089948;28;20028;-74
2022/10/08 10:35:31;;;;;;;7.35;0.95;;;;;;;22.46;36.84;102259.13;5089385;28;20507;-72
2022/10/08 10:38:12;;;;;;;5.30;0.90;;;;;;;21.33;37.78;102270.09;5090257;28;20030;-72
2022/10/08 10:40:49;;;;;;;12.18;1.05;;;;;;;22.60;35.74;102271.00;5090204;28;20127;-73
2022/10/08 10:43:26;;;;;;;6.03;0.90;;;;;;;22.24;37.44;102260.78;5090580;28;20024;-73
2022/10/08 10:46:05;;;;;;;8.75;1.10;;;;;;;21.86;38.28;102270.09;5090300;28;20027;-73
2022/10/08 10:48:30;;;;;;;13.35;1.48;;;;;;;21.27;39.44;102286.25;5090168;28;20024;-72
2022/10/08 10:51:02;;;;;;;6.43;1.40;;;;;;;22.22;36.68;102275.97;5089177;28;20143;-73
2022/10/08 10:53:47;;;;;;;5.80;0.98;;;;;;;21.76;37.99;102282.00;5090353;28;20023;-72
2022/10/08 10:56:28;;;;;;;6.65;1.10;;;;;;;22.79;36.11;102277.41;5092900;28;20028;-73
2022/10/08 10:59:03;;;;;;;10.45;1.50;;;;;;;21.44;38.61;102283.88;5093804;28;20020;-73
2022/10/08 11:01:53;;;;;;;7.53;1.45;;;;;;;22.11;38.13;102279.88;5093797;28;20031;-74
2022/10/08 11:04:34;;;;;;;5.45;1.00;;;;;;;22.39;37.69;102284.22;5092965;28;20055;-73
2022/10/08 11:07:31;;;;;;;9.80;1.50;;;;;;;23.49;36.73;102294.19;5093615;28;20031;-73
2022/10/08 11:10:32;;;;;;;5.55;1.00;;;;;;;23.25;35.95;102297.88;5094194;28;20016;-73
2022/10/08 11:13:08;;;;;;;4.20;0.88;;;;;;;22.81;37.12;102296.84;5093482;28;20023;-73
2022/10/08 11:15:53;;;;;;;6.13;1.15;;;;;;;21.89;38.19;102294.88;5093097;28;20176;-74
2022/10/08 11:18:43;;;;;;;9.15;1.92;;;;;;;23.65;36.00;102296.22;5094112;28;20020;-73
2022/10/08 11:21:33;;;;;;;6.55;0.95;;;;;;;24.85;33.95;102298.94;5093339;28;20034;-73
2022/10/08 11:24:13;;;;;;;8.77;1.20;;;;;;;22.81;34.89;102302.19;5093673;28;20507;-73
2022/10/08 11:26:48;;;;;;;7.32;1.13;;;;;;;23.71;33.78;102306.63;5093179;28;20032;-72
2022/10/08 11:29:30;;;;;;;8.93;1.60;;;;;;;24.06;33.54;102304.28;5092846;28;20020;-72
2022/10/08 11:31:56;;;;;;;6.20;1.20;;;;;;;22.25;34.75;102303.34;5092391;28;20046;-72
2022/10/08 11:34:41;;;;;;;5.22;0.82;;;;;;;22.62;34.33;102307.34;5092864;28;20035;-72
2022/10/08 11:37:38;;;;;;;6.00;1.00;;;;;;;23.17;34.04;102317.69;5094291;28;20032;-73